Time;durP1;ratioP1;P1;durP2;ratioP2;P2;SDS_P1;SDS_P2;PMS_P1;PMS_P2;Temp;Humidity;BMP_temperature;BMP_pressure;BME280_temperature;BME280_humidity;BME280_pressure;Samples;Min_cycle;Max_cycle;Signal;HPM_P1;HPM_P2
2023/03/02 00:01:37;;;;;;;20.52;8.27;;;;;;;0.87;100.00;102366.66;6325068;28;20123;-74
2023/03/02 00:04:43;;;;;;;20.25;7.47;;;;;;;0.72;100.00;102378.53;6316696;28;20054;-74
2023/03/02 00:07:45;;;;;;;21.58;8.32;;;;;;;0.74;100.00;102379.44;6324803;28;20040;-74
2023/03/02 00:10:46;;;;;;;21.92;7.90;;;;;;;0.76;100.00;102372.56;6324883;28;20047;-74
2023/03/02 00:13:49;;;;;;;19.85;7.53;;;;;;;0.77;100.00;102365.66;6325107;28;20052;-74
2023/03/02 00:16:50;;;;;;;21.48;7.70;;;;;;;0.69;100.00;102367.28;6324765;28;20432;-74
2023/03/02 00:19:52;;;;;;;20.92;6.82;;;;;;;0.67;100.00;102364.66;6316569;28;20044;-74
2023/03/02 00:22:53;;;;;;;18.83;7.47;;;;;;;0.69;100.00;102375.94;6314201;28;20051;-73
2023/03/02 00:25:54;;;;;;;18.25;7.97;;;;;;;0.70;100.00;102374.19;6302674;28;20048;-74
2023/03/02 00:28:57;;;;;;;21.73;7.05;;;;;;;0.71;100.00;102373.34;6324716;28;20052;-74
2023/03/02 00:31:58;;;;;;;18.48;8.00;;;;;;;0.63;100.00;102375.81;6322606;28;20044;-74
2023/03/02 00:35:00;;;;;;;17.88;7.13;;;;;;;0.70;100.00;102380.25;6304811;28;20037;-74
2023/03/02 00:38:01;;;;;;;20.40;8.25;;;;;;;0.73;100.00;102380.28;6299431;28;20048;-74
2023/03/02 00:41:02;;;;;;;16.70;6.55;;;;;;;0.74;100.00;102369.09;6299713;28;20044;-75
2023/03/02 00:44:05;;;;;;;18.52;7.20;;;;;;;0.74;100.00;102374.25;6299466;28;20045;-74
2023/03/02 00:47:06;;;;;;;17.60;7.35;;;;;;;0.75;100.00;102377.72;6302747;28;20048;-74
2023/03/02 00:50:09;;;;;;;21.33;9.13;;;;;;;0.72;100.00;102369.91;6304245;28;20052;-74
2023/03/02 00:53:11;;;;;;;17.77;7.72;;;;;;;0.69;100.00;102377.66;6304370;28;20041;-74
2023/03/02 00:56:12;;;;;;;24.23;7.47;;;;;;;0.68;100.00;102381.06;6313641;28;20044;-74
2023/03/02 00:59:25;;;;;;;22.50;9.25;;;;;;;0.65;100.00;102378.44;6329001;28;20048;-74
2023/03/02 01:02:27;;;;;;;19.67;6.85;;;;;;;0.63;100.00;102375.81;6329183;28;20432;-74
2023/03/02 01:05:28;;;;;;;20.95;8.18;;;;;;;0.63;100.00;102372.38;6312150;28;20048;-74
2023/03/02 01:08:30;;;;;;;20.27;8.85;;;;;;;0.58;100.00;102372.31;6328749;28;20054;-74
2023/03/02 01:11:31;;;;;;;26.75;8.32;;;;;;;0.55;100.00;102372.28;6328818;28;20447;-74
2023/03/02 01:14:34;;;;;;;20.17;7.32;;;;;;;0.56;100.00;102363.66;6328808;28;20123;-74
2023/03/02 01:17:36;;;;;;;25.70;9.55;;;;;;;0.59;100.00;102370.59;6328514;28;20055;-74
2023/03/02 01:20:37;;;;;;;17.48;6.63;;;;;;;0.55;100.00;102361.06;6328656;28;20367;-74
2023/03/02 01:23:39;;;;;;;19.90;7.63;;;;;;;0.54;100.00;102362.75;6328434;28;20059;-74
2023/03/02 01:26:40;;;;;;;26.13;7.95;;;;;;;0.47;100.00;102356.66;6327084;28;20048;-74
2023/03/02 01:29:43;;;;;;;17.60;6.90;;;;;;;0.47;100.00;102348.03;6303270;28;20059;-74
2023/03/02 01:32:44;;;;;;;18.60;7.15;;;;;;;0.49;100.00;102343.72;6303499;28;20056;-74
2023/03/02 01:35:47;;;;;;;29.85;8.73;;;;;;;0.46;100.00;102343.69;6302993;28;20044;-74
2023/03/02 01:38:48;;;;;;;24.67;8.80;;;;;;;0.53;100.00;102345.50;6303008;28;20362;-74
2023/03/02 01:41:52;;;;;;;21.10;7.53;;;;;;;0.56;100.00;102344.69;6303049;28;20071;-74
2023/03/02 01:44:55;;;;;;;21.80;8.68;;;;;;;0.55;100.00;102342.97;6305042;28;20048;-74
2023/03/02 01:47:57;;;;;;;19.70;7.68;;;;;;;0.49;100.00;102341.13;6327948;28;20058;-74
2023/03/02 01:51:00;;;;;;;22.88;8.48;;;;;;;0.49;100.00;102344.59;6327981;28;20048;-74
2023/03/02 01:54:05;;;;;;;30.65;9.85;;;;;;;0.54;100.00;102347.25;6327828;28;20055;-74
2023/03/02 01:57:08;;;;;;;29.10;8.93;;;;;;;0.49;100.00;102341.13;6325764;28;20044;-74
2023/03/02 02:00:13;;;;;;;23.23;8.02;;;;;;;0.53;100.00;102344.66;6314568;28;20055;-74
2023/03/02 02:03:19;;;;;;;27.85;9.27;;;;;;;0.53;100.00;102342.06;6302604;28;20455;-74
2023/03/02 02:06:24;;;;;;;28.60;10.80;;;;;;;0.50;100.00;102346.34;6302320;28;20051;-74
2023/03/02 02:09:27;;;;;;;19.23;8.48;;;;;;;0.55;100.00;102342.97;6302273;28;20048;-74
2023/03/02 02:12:29;;;;;;;28.48;8.63;;;;;;;0.37;100.00;102348.75;6302588;28;20040;-73
2023/03/02 02:15:32;;;;;;;23.33;9.52;;;;;;;0.40;100.00;102339.28;6302146;28;20059;-74
2023/03/02 02:18:35;;;;;;;20.35;9.77;;;;;;;0.41;100.00;102338.47;6302311;28;20099;-74
2023/03/02 02:21:37;;;;;;;32.85;9.70;;;;;;;0.44;100.00;102329.88;6319251;28;20047;-74
2023/03/02 02:24:43;;;;;;;31.08;12.73;;;;;;;0.40;100.00;102330.66;6318655;28;20044;-74
2023/03/02 02:27:46;;;;;;;22.77;9.35;;;;;;;0.34;100.00;102323.69;6317752;28;20436;-74
2023/03/02 02:30:51;;;;;;;20.00;8.82;;;;;;;0.17;100.00;102322.56;6326623;28;20052;-74
2023/03/02 02:33:57;;;;;;;18.98;7.28;;;;;;;0.08;100.00;102325.03;6326838;28;20048;-74
2023/03/02 02:37:03;;;;;;;17.77;7.60;;;;;;;-0.13;100.00;102318.69;6322220;28;20040;-74
2023/03/02 02:40:12;;;;;;;14.05;6.15;;;;;;;-0.03;100.00;102332.63;6301617;28;20333;-74
2023/03/02 02:43:17;;;;;;;10.82;5.40;;;;;;;-0.07;100.00;102328.25;6301628;28;20456;-73
2023/03/02 02:46:19;;;;;;;17.15;7.80;;;;;;;-0.10;100.00;102325.59;6301246;28;20041;-74
2023/03/02 02:49:28;;;;;;;16.23;7.03;;;;;;;-0.06;100.00;102332.56;6301351;28;20051;-74
2023/03/02 02:52:30;;;;;;;13.38;7.28;;;;;;;-0.12;100.00;102319.56;6308957;28;20450;-74
2023/03/02 02:55:33;;;;;;;27.02;8.10;;;;;;;-0.09;100.00;102323.06;6317766;28;20348;-74
2023/03/02 02:58:41;;;;;;;18.00;7.53;;;;;;;-0.13;100.00;102321.28;6324584;28;20055;-74
2023/03/02 03:01:44;;;;;;;13.82;6.35;;;;;;;-0.07;100.00;102321.38;6317647;28;20133;-74
2023/03/02 03:04:46;;;;;;;15.00;7.80;;;;;;;-0.12;100.00;102324.72;6326026;28;20348;-74
2023/03/02 03:07:47;;;;;;;19.17;7.70;;;;;;;-0.09;100.00;102328.25;6325510;28;20048;-73
2023/03/02 03:10:48;;;;;;;17.67;7.78;;;;;;;-0.14;100.00;102326.41;6325911;28;20044;-74
2023/03/02 03:13:56;;;;;;;15.38;7.55;;;;;;;-0.17;100.00;102327.25;6325877;28;20052;-74
2023/03/02 03:16:57;;;;;;;16.48;6.90;;;;;;;-0.21;100.00;102330.59;6326009;28;20048;-74
2023/03/02 03:20:04;;;;;;;14.10;7.72;;;;;;;-0.18;100.00;102328.09;6325910;28;20055;-74
2023/03/02 03:23:06;;;;;;;15.00;7.43;;;;;;;-0.18;100.00;102329.78;6326198;28;20075;-74
2023/03/02 03:26:07;;;;;;;13.75;7.15;;;;;;;-0.04;100.00;102330.91;6325359;28;20325;-74
2023/03/02 03:29:10;;;;;;;22.48;8.88;;;;;;;-0.01;100.00;102320.59;6323823;28;20047;-73
2023/03/02 03:32:12;;;;;;;18.35;7.60;;;;;;;-0.05;100.00;102329.13;6325743;28;20047;-74
2023/03/02 03:35:13;;;;;;;17.90;8.50;;;;;;;-0.03;100.00;102323.16;6325346;28;20052;-74
2023/03/02 03:38:14;;;;;;;19.20;7.55;;;;;;;0.04;100.00;102326.69;6325403;28;20044;-74
2023/03/02 03:41:16;;;;;;;16.45;6.72;;;;;;;0.06;100.00;102329.31;6303653;28;20436;-74
2023/03/02 03:44:18;;;;;;;25.40;9.60;;;;;;;0.16;100.00;102331.19;6322625;28;20056;-74
2023/03/02 03:47:20;;;;;;;16.83;7.32;;;;;;;0.28;100.00;102327.94;6324873;28;20048;-74
2023/03/02 03:50:21;;;;;;;16.75;8.30;;;;;;;0.27;100.00;102329.63;6324733;28;20051;-74
2023/03/02 03:53:23;;;;;;;17.75;7.90;;;;;;;0.18;100.00;102325.22;6325350;28;20048;-74
2023/03/02 03:56:24;;;;;;;16.48;6.63;;;;;;;0.15;100.00;102335.50;6324827;28;20055;-74
2023/03/02 03:59:28;;;;;;;13.05;7.00;;;;;;;0.12;100.00;102331.97;6321088;28;20129;-74
2023/03/02 04:02:29;;;;;;;18.48;6.68;;;;;;;0.14;100.00;102333.75;6325153;28;20070;-74
2023/03/02 04:05:30;;;;;;;25.30;7.40;;;;;;;0.01;100.00;102337.00;6324964;28;20052;-74
2023/03/02 04:08:32;;;;;;;20.85;7.60;;;;;;;0.02;100.00;102338.72;6324027;28;20055;-74
2023/03/02 04:11:34;;;;;;;18.55;7.00;;;;;;;0.05;100.00;102343.09;6325177;28;20051;-74
2023/03/02 04:14:37;;;;;;;15.63;7.10;;;;;;;0.04;100.00;102334.44;6324880;28;20048;-74
2023/03/02 04:17:38;;;;;;;21.13;8.38;;;;;;;0.08;100.00;102330.19;6316537;28;20048;-74
2023/03/02 04:20:40;;;;;;;19.52;8.63;;;;;;;0.16;100.00;102328.59;6317454;28;20044;-74
2023/03/02 04:23:41;;;;;;;15.77;7.65;;;;;;;-0.05;100.00;102332.56;6329887;28;20317;-74
2023/03/02 04:26:43;;;;;;;16.27;7.63;;;;;;;0.06;100.00;102335.34;6329812;28;20044;-74
2023/03/02 04:29:46;;;;;;;29.58;6.57;;;;;;;-0.07;100.00;102333.41;6327958;28;20056;-74
2023/03/02 04:32:47;;;;;;;17.70;8.43;;;;;;;-0.12;100.00;102335.06;6329945;28;20075;-74
2023/03/02 04:35:48;;;;;;;18.42;8.38;;;;;;;-0.19;100.00;102334.06;6329387;28;20044;-74
2023/03/02 04:38:50;;;;;;;15.38;7.68;;;;;;;-0.12;100.00;102337.66;6329537;28;20394;-74
2023/03/02 04:41:52;;;;;;;12.52;5.85;;;;;;;-0.19;100.00;102336.66;6322853;28;20040;-74
2023/03/02 04:44:55;;;;;;;17.58;6.90;;;;;;;-0.08;100.00;102339.44;6309349;28;20048;-74
2023/03/02 04:47:57;;;;;;;16.65;7.13;;;;;;;-0.13;100.00;102339.38;6294168;28;20044;-74
2023/03/02 04:50:58;;;;;;;19.35;7.60;;;;;;;-0.02;100.00;102335.22;6308026;28;20051;-73
2023/03/02 04:54:02;;;;;;;17.10;8.23;;;;;;;-0.11;100.00;102331.63;6307158;28;20040;-73
2023/03/02 04:57:03;;;;;;;16.17;7.10;;;;;;;-0.10;100.00;102320.44;6307794;28;20466;-74
2023/03/02 05:00:09;;;;;;;15.27;7.05;;;;;;;-0.07;100.00;102321.38;6305262;28;20039;-74
2023/03/02 05:03:11;;;;;;;13.63;6.53;;;;;;;0.01;100.00;102318.03;6308250;28;20402;-74
2023/03/02 05:06:12;;;;;;;17.67;7.20;;;;;;;0.11;100.00;102322.50;6309019;28;20550;-73
2023/03/02 05:09:14;;;;;;;17.85;7.95;;;;;;;0.01;100.00;102320.63;6307678;28;20043;-73
2023/03/02 05:12:17;;;;;;;18.23;7.80;;;;;;;0.08;100.00;102327.63;6307739;28;20122;-75
2023/03/02 05:15:21;;;;;;;13.25;5.57;;;;;;;0.12;100.00;102329.41;6306519;28;20035;-74
2023/03/02 05:18:22;;;;;;;16.50;7.32;;;;;;;0.09;100.00;102329.34;6308226;28;20036;-74
2023/03/02 05:21:24;;;;;;;16.45;7.80;;;;;;;0.03;100.00;102334.44;6305701;28;20040;-73
2023/03/02 05:24:26;;;;;;;17.55;8.23;;;;;;;-0.01;100.00;102330.91;6308531;28;20606;-74
2023/03/02 05:27:27;;;;;;;15.20;6.35;;;;;;;0.07;100.00;102337.09;6305081;28;20040;-74
2023/03/02 05:30:31;;;;;;;18.08;7.45;;;;;;;-0.09;100.00;102337.69;6307157;28;20088;-74
2023/03/02 05:33:32;;;;;;;16.55;7.05;;;;;;;0.02;100.00;102341.31;6306081;28;20122;-74
2023/03/02 05:36:34;;;;;;;14.77;8.13;;;;;;;0.13;100.00;102338.88;6305877;28;20490;-74
2023/03/02 05:39:35;;;;;;;21.25;7.40;;;;;;;0.07;100.00;102336.22;6307711;28;20048;-74
2023/03/02 05:42:37;;;;;;;12.10;5.70;;;;;;;0.08;100.00;102336.22;6319041;28;20052;-74
2023/03/02 05:45:40;;;;;;;12.80;7.07;;;;;;;0.10;100.00;102336.28;6319643;28;20059;-74
2023/03/02 05:48:41;;;;;;;15.27;7.47;;;;;;;0.10;100.00;102337.13;6327748;28;20050;-74
2023/03/02 05:51:43;;;;;;;15.77;7.63;;;;;;;0.12;100.00;102350.06;6322152;28;20108;-74
2023/03/02 05:54:44;;;;;;;14.43;6.15;;;;;;;-0.01;100.00;102346.44;6312101;28;20093;-73
2023/03/02 05:57:48;;;;;;;13.75;6.78;;;;;;;-0.05;100.00;102345.50;6314204;28;20051;-74
2023/03/02 06:00:51;;;;;;;14.05;6.50;;;;;;;0.07;100.00;102346.56;6314414;28;20448;-74
2023/03/02 06:03:52;;;;;;;13.95;7.38;;;;;;;0.04;100.00;102343.91;6312155;28;20456;-73
2023/03/02 06:06:53;;;;;;;16.45;8.30;;;;;;;0.03;100.00;102355.97;6319822;28;20051;-74
2023/03/02 06:09:55;;;;;;;16.30;7.57;;;;;;;0.03;100.00;102358.56;6321623;28;20444;-74
2023/03/02 06:12:56;;;;;;;18.38;8.18;;;;;;;0.15;100.00;102360.47;6327080;28;20411;-73
2023/03/02 06:15:59;;;;;;;15.32;7.43;;;;;;;0.14;100.00;102363.91;6316417;28;20063;-74
2023/03/02 06:19:00;;;;;;;16.92;7.55;;;;;;;0.20;100.00;102371.75;6325497;28;20048;-74
2023/03/02 06:22:01;;;;;;;13.70;6.30;;;;;;;0.12;100.00;102369.03;6327147;28;20044;-74
2023/03/02 06:25:04;;;;;;;18.73;7.55;;;;;;;0.09;100.00;102360.34;6321868;28;20053;-74
2023/03/02 06:28:05;;;;;;;18.25;8.57;;;;;;;0.08;100.00;102356.03;6315040;28;20040;-73
2023/03/02 06:31:08;;;;;;;14.27;6.00;;;;;;;0.06;100.00;102356.03;6314615;28;20056;-74
2023/03/02 06:34:09;;;;;;;18.77;6.55;;;;;;;0.02;100.00;102361.13;6310695;28;20041;-74
2023/03/02 06:37:10;;;;;;;12.85;6.38;;;;;;;0.07;100.00;102365.50;6313501;28;20040;-73
2023/03/02 06:40:12;;;;;;;15.02;6.35;;;;;;;0.01;100.00;102351.63;6316982;28;20048;-73
2023/03/02 06:43:14;;;;;;;18.52;6.55;;;;;;;0.01;100.00;102349.91;6315526;28;20044;-74
2023/03/02 06:46:16;;;;;;;13.43;6.45;;;;;;;0.14;100.00;102356.16;6326341;28;20077;-74
2023/03/02 06:49:18;;;;;;;11.57;5.95;;;;;;;0.04;100.00;102364.59;6326360;28;20443;-74
2023/03/02 06:52:19;;;;;;;16.45;7.82;;;;;;;0.08;100.00;102354.31;6326849;28;20044;-74
2023/03/02 06:55:20;;;;;;;13.23;6.50;;;;;;;0.04;100.00;102346.50;6326108;28;20044;-74
2023/03/02 06:58:22;;;;;;;16.05;6.70;;;;;;;0.09;100.00;102360.34;6324407;28;20067;-74
2023/03/02 07:01:24;;;;;;;18.77;8.70;;;;;;;0.14;100.00;102354.44;6326300;28;20048;-74
2023/03/02 07:04:27;;;;;;;11.93;5.70;;;;;;;0.20;100.00;102364.00;6326257;28;20044;-74
2023/03/02 07:07:28;;;;;;;17.55;7.20;;;;;;;0.13;100.00;102355.25;6325098;28;20521;-74
2023/03/02 07:10:29;;;;;;;14.27;7.30;;;;;;;0.01;100.00;102352.50;6326263;28;20055;-73
2023/03/02 07:13:31;;;;;;;15.82;6.20;;;;;;;-0.02;100.00;102349.84;6325879;28;20071;-74
2023/03/02 07:16:34;;;;;;;16.83;7.50;;;;;;;0.03;100.00;102345.63;6325916;28;20044;-74
2023/03/02 07:19:37;;;;;;;14.93;6.97;;;;;;;0.09;100.00;102344.84;6325954;28;20055;-74
2023/03/02 07:22:38;;;;;;;14.30;6.97;;;;;;;0.09;100.00;102350.91;6317573;28;20048;-74
2023/03/02 07:25:40;;;;;;;14.48;7.32;;;;;;;0.11;100.00;102345.75;6324007;28;20053;-74
2023/03/02 07:28:42;;;;;;;16.92;6.63;;;;;;;0.09;100.00;102340.59;6325518;28;20044;-74
2023/03/02 07:31:44;;;;;;;21.17;7.05;;;;;;;0.12;100.00;102340.59;6325588;28;20052;-74
2023/03/02 07:34:46;;;;;;;15.98;7.15;;;;;;;0.20;100.00;102332.97;6324773;28;20048;-74
2023/03/02 07:37:47;;;;;;;12.38;6.75;;;;;;;0.22;100.00;102345.06;6325519;28;20059;-74
2023/03/02 07:40:49;;;;;;;17.50;8.48;;;;;;;0.23;100.00;102339.06;6325354;28;20074;-74
2023/03/02 07:43:50;;;;;;;13.18;6.70;;;;;;;0.21;100.00;102337.28;6325119;28;20383;-74
2023/03/02 07:46:53;;;;;;;16.92;7.78;;;;;;;0.14;100.00;102343.25;6317368;28;20055;-75
2023/03/02 07:49:55;;;;;;;11.90;6.22;;;;;;;0.16;100.00;102337.22;6299241;28;20055;-74
2023/03/02 07:52:56;;;;;;;12.55;6.22;;;;;;;0.13;100.00;102332.00;6312745;28;20118;-74
2023/03/02 07:55:59;;;;;;;14.93;7.35;;;;;;;0.22;100.00;102346.78;6306289;28;20462;-75
2023/03/02 07:59:01;;;;;;;17.67;7.95;;;;;;;0.24;100.00;102345.97;6307844;28;20044;-73
2023/03/02 08:02:03;;;;;;;11.68;6.18;;;;;;;0.27;100.00;102339.09;6300491;28;20459;-74
2023/03/02 08:05:06;;;;;;;16.42;6.03;;;;;;;0.26;100.00;102345.97;6302627;28;20045;-75
2023/03/02 08:08:07;;;;;;;12.15;5.68;;;;;;;0.26;100.00;102345.97;6309644;28;20040;-74
2023/03/02 08:11:11;;;;;;;12.10;6.28;;;;;;;0.22;100.00;102350.22;6321173;28;20055;-74
2023/03/02 08:14:12;;;;;;;14.88;7.78;;;;;;;0.20;100.00;102351.94;6324879;28;20044;-74
2023/03/02 08:17:15;;;;;;;20.67;7.95;;;;;;;0.33;100.00;102354.72;6316713;28;20044;-74
2023/03/02 08:20:17;;;;;;;11.43;5.57;;;;;;;0.36;100.00;102354.75;6308636;28;20037;-75
2023/03/02 08:23:18;;;;;;;17.83;6.15;;;;;;;0.34;100.00;102351.28;6299841;28;20051;-74
2023/03/02 08:26:20;;;;;;;14.77;7.30;;;;;;;0.18;100.00;102348.47;6305758;28;20047;-74
2023/03/02 08:29:23;;;;;;;20.90;6.90;;;;;;;0.29;100.00;102346.03;6301020;28;20045;-75
2023/03/02 08:32:26;;;;;;;31.33;7.38;;;;;;;0.30;100.00;102349.50;6306901;28;20047;-74
2023/03/02 08:35:27;;;;;;;16.08;7.65;;;;;;;0.37;100.00;102344.44;6314711;28;20047;-75
2023/03/02 08:38:29;;;;;;;13.50;6.72;;;;;;;0.34;100.00;102349.56;6318135;28;20051;-75
2023/03/02 08:41:33;;;;;;;16.33;8.25;;;;;;;0.30;100.00;102339.16;6311141;28;20040;-73
2023/03/02 08:44:34;;;;;;;14.63;6.93;;;;;;;0.37;100.00;102336.69;6307716;28;20538;-73
2023/03/02 08:47:37;;;;;;;16.70;6.85;;;;;;;0.39;100.00;102337.56;6324389;28;20049;-73
2023/03/02 08:50:38;;;;;;;13.05;6.65;;;;;;;0.41;100.00;102335.88;6324596;28;20052;-73
2023/03/02 08:53:41;;;;;;;30.73;12.70;;;;;;;0.43;100.00;102335.88;6317891;28;20048;-73
2023/03/02 08:56:43;;;;;;;36.92;16.20;;;;;;;0.43;100.00;102331.59;6306244;28;20053;-72
2023/03/02 08:59:44;;;;;;;18.45;7.20;;;;;;;0.48;100.00;102342.00;6324134;28;20052;-73
2023/03/02 09:02:47;;;;;;;17.15;7.90;;;;;;;0.39;100.00;102334.09;6324254;28;20083;-72
2023/03/02 09:05:48;;;;;;;16.08;6.97;;;;;;;0.52;100.00;102337.75;6324150;28;20055;-72
2023/03/02 09:08:50;;;;;;;18.35;8.75;;;;;;;0.53;100.00;102334.31;6328040;28;20048;-73
2023/03/02 09:11:51;;;;;;;20.10;7.15;;;;;;;0.55;100.00;102330.91;6312212;28;20053;-74
2023/03/02 09:14:52;;;;;;;22.23;10.60;;;;;;;0.55;100.00;102330.91;6311583;28;20052;-73
2023/03/02 09:17:55;;;;;;;11.77;6.60;;;;;;;0.60;100.00;102331.81;6308085;28;20350;-73
2023/03/02 09:20:57;;;;;;;24.75;6.85;;;;;;;0.54;100.00;102338.63;6309016;28;20060;-72
2023/03/02 09:23:59;;;;;;;15.07;7.50;;;;;;;0.65;100.00;102337.94;6311752;28;20048;-72
2023/03/02 09:27:00;;;;;;;10.50;5.22;;;;;;;0.56;100.00;102339.53;6327867;28;20048;-72
2023/03/02 09:30:01;;;;;;;16.85;7.53;;;;;;;0.65;100.00;102339.66;6328458;28;20040;-73
2023/03/02 09:33:04;;;;;;;15.23;6.35;;;;;;;0.65;100.00;102331.88;6325010;28;20044;-74
2023/03/02 09:36:06;;;;;;;19.08;6.90;;;;;;;0.75;100.00;102333.72;6328222;28;20048;-73
2023/03/02 09:39:08;;;;;;;18.17;7.28;;;;;;;0.84;100.00;102339.03;6319636;28;20044;-74
2023/03/02 09:42:23;;;;;;;13.88;6.60;;;;;;;0.84;100.00;102331.25;6306186;28;20060;-73
2023/03/02 09:45:37;;;;;;;20.10;6.95;;;;;;;0.88;100.00;102339.94;6309025;28;20044;-72
2023/03/02 09:48:46;;;;;;;12.88;5.40;;;;;;;0.95;100.00;102334.88;6311315;28;20044;-72
2023/03/02 09:52:10;;;;;;;15.45;7.07;;;;;;;1.00;100.00;102334.91;6309524;28;20075;-73
2023/03/02 09:55:15;;;;;;;55.60;25.38;;;;;;;1.02;100.00;102333.19;6309586;28;20044;-72
2023/03/02 09:58:20;;;;;;;29.48;14.30;;;;;;;0.98;100.00;102321.94;6307780;28;20367;-73
2023/03/02 10:01:33;;;;;;;19.48;9.23;;;;;;;1.01;100.00;102324.56;6304927;28;20045;-74
2023/03/02 10:04:43;;;;;;;13.75;7.50;;;;;;;1.11;100.00;102327.25;6302560;28;20348;-73
2023/03/02 10:07:46;;;;;;;17.33;6.35;;;;;;;1.11;100.00;102337.63;6320007;28;20051;-73
2023/03/02 10:10:57;;;;;;;12.50;6.30;;;;;;;1.13;100.00;102328.13;6327763;28;20052;-73
2023/03/02 10:14:03;;;;;;;13.50;5.38;;;;;;;1.20;100.00;102336.00;6327358;28;20456;-73
2023/03/02 10:17:32;;;;;;;11.68;5.10;;;;;;;1.07;100.00;102331.53;6327222;28;20048;-74
2023/03/02 10:20:42;;;;;;;12.73;5.82;;;;;;;1.12;100.00;102329.00;6316388;28;20052;-74
2023/03/02 10:23:49;;;;;;;14.98;7.00;;;;;;;1.13;100.00;102329.00;6304882;28;20055;-74
2023/03/02 10:26:53;;;;;;;14.10;7.15;;;;;;;1.02;100.00;102334.06;6307346;28;20048;-75
2023/03/02 10:30:01;;;;;;;11.40;5.57;;;;;;;1.16;100.00;102318.69;6320670;28;20436;-73
2023/03/02 10:33:09;;;;;;;17.73;6.68;;;;;;;1.19;100.00;102320.44;6310829;28;20462;-73
2023/03/02 10:36:21;;;;;;;13.75;6.22;;;;;;;1.24;100.00;102323.94;6311339;28;20052;-74
2023/03/02 10:39:22;;;;;;;13.18;6.30;;;;;;;1.20;100.00;102322.19;6314436;28;20051;-74
2023/03/02 10:42:29;;;;;;;16.27;8.00;;;;;;;1.34;100.00;102327.50;6313294;28;20547;-74
2023/03/02 10:45:32;;;;;;;22.55;9.07;;;;;;;1.43;100.00;102312.91;6318189;28;20051;-74
2023/03/02 10:48:46;;;;;;;19.77;7.03;;;;;;;1.41;100.00;102321.50;6308207;28;20036;-73
2023/03/02 10:51:55;;;;;;;14.23;6.68;;;;;;;1.52;100.00;102322.50;6317724;28;20055;-73
2023/03/02 10:55:06;;;;;;;13.13;6.65;;;;;;;1.42;100.00;102321.56;6324909;28;20667;-73
2023/03/02 10:58:24;;;;;;;13.82;6.85;;;;;;;1.44;100.00;102319.81;6326404;28;20073;-73
2023/03/02 11:01:25;;;;;;;13.98;6.60;;;;;;;1.52;100.00;102322.50;6326211;28;20068;-73
2023/03/02 11:04:26;;;;;;;13.82;6.10;;;;;;;1.50;100.00;102319.03;6326246;28;20428;-73
2023/03/02 11:07:29;;;;;;;18.40;7.05;;;;;;;1.42;100.00;102318.97;6325754;28;20055;-73
2023/03/02 11:10:33;;;;;;;14.48;6.70;;;;;;;1.47;100.00;102313.81;6326204;28;20047;-73
2023/03/02 11:13:36;;;;;;;13.65;7.45;;;;;;;1.41;100.00;102304.28;6326095;28;20136;-73
2023/03/02 11:16:37;;;;;;;17.00;6.65;;;;;;;1.55;100.00;102313.91;6317890;28;20051;-73
2023/03/02 11:19:41;;;;;;;15.35;7.15;;;;;;;1.73;100.00;102312.34;6320904;28;20046;-70
2023/03/02 11:22:51;;;;;;;16.35;5.88;;;;;;;1.80;100.00;102309.78;6312560;28;20081;-70
2023/03/02 11:25:55;;;;;;;13.02;5.88;;;;;;;1.80;100.00;102308.06;6306458;28;20071;-71
2023/03/02 11:29:00;;;;;;;17.48;6.47;;;;;;;1.85;100.00;102301.19;6313453;28;20044;-71
2023/03/02 11:32:11;;;;;;;11.68;6.55;;;;;;;1.82;100.00;102293.41;6312950;28;20351;-70
2023/03/02 11:35:17;;;;;;;15.23;6.97;;;;;;;1.92;100.00;102290.00;6309007;28;20045;-70
2023/03/02 11:38:25;;;;;;;11.40;6.18;;;;;;;1.98;100.00;102284.88;6300689;28;20349;-70
2023/03/02 11:41:29;;;;;;;18.75;8.05;;;;;;;1.90;100.00;102286.53;6306338;28;20415;-70
2023/03/02 11:44:30;;;;;;;21.50;7.43;;;;;;;1.78;100.00;102289.06;6306147;28;20150;-70
2023/03/02 11:47:33;;;;;;;16.48;7.35;;;;;;;1.77;100.00;102289.88;6307997;28;20044;-70
2023/03/02 11:50:40;;;;;;;14.38;6.90;;;;;;;1.85;100.00;102290.81;6304675;28;20049;-70
2023/03/02 11:53:50;;;;;;;16.48;7.63;;;;;;;1.98;100.00;102291.78;6308902;28;20325;-72
2023/03/02 11:56:51;;;;;;;;;;;;;;;2.00;100.00;102283.16;6312100;28;20048;-72
2023/03/02 11:59:53;;;;;;;9.48;5.28;;;;;;;2.04;100.00;102281.44;6307944;28;19920;-72
2023/03/02 12:02:59;;;;;;;14.05;6.97;;;;;;;1.99;100.00;102277.94;6316317;28;20051;-72
2023/03/02 12:06:03;;;;;;;19.05;8.13;;;;;;;1.97;100.00;102280.53;6314474;28;20059;-73
2023/03/02 12:09:29;;;;;;;13.98;6.57;;;;;;;1.87;100.00;102277.88;6314743;28;20321;-72
2023/03/02 12:12:39;;;;;;;18.40;7.35;;;;;;;1.90;100.00;102283.06;6309120;28;20070;-72
2023/03/02 12:15:44;;;;;;;16.60;7.82;;;;;;;1.92;100.00;102283.97;6308095;28;20056;-73
2023/03/02 12:18:47;;;;;;;12.63;6.28;;;;;;;1.94;100.00;102279.66;6322718;28;20051;-73
2023/03/02 12:21:56;;;;;;;15.70;7.38;;;;;;;2.00;100.00;102270.19;6324897;28;20048;-73
2023/03/02 12:25:24;;;;;;;26.92;9.23;;;;;;;1.94;100.00;102269.28;6324609;28;20052;-73
2023/03/02 12:28:31;;;;;;;20.15;7.88;;;;;;;1.96;100.00;102265.84;6317645;28;20060;-73
2023/03/02 12:31:42;;;;;;;24.05;10.90;;;;;;;1.98;100.00;102264.13;6310967;28;20055;-72
2023/03/02 12:34:51;;;;;;;119.43;29.90;;;;;;;2.03;100.00;102265.00;6323738;28;20048;-71
2023/03/02 12:37:56;;;;;;;100.93;17.10;;;;;;;2.02;100.00;102260.69;6299596;28;20048;-73
2023/03/02 12:41:28;;;;;;;28.55;11.20;;;;;;;1.90;100.00;102263.19;6302487;28;20048;-72
2023/03/02 12:44:42;;;;;;;83.22;16.42;;;;;;;1.99;100.00;102262.41;6324745;28;20044;-73
2023/03/02 12:47:48;;;;;;;37.95;12.23;;;;;;;1.95;100.00;102261.53;6314051;28;20398;-72
2023/03/02 12:50:52;;;;;;;22.00;9.80;;;;;;;1.99;100.00;102258.06;6329609;28;20067;-72
2023/03/02 12:54:02;;;;;;;18.55;7.93;;;;;;;2.08;100.00;102256.41;6313567;28;20051;-72
2023/03/02 12:57:13;;;;;;;18.30;8.18;;;;;;;1.98;100.00;102251.16;6308743;28;20040;-72
2023/03/02 13:00:17;;;;;;;28.08;7.65;;;;;;;1.99;100.00;102246.84;6304186;28;20052;-73
2023/03/02 13:03:19;;;;;;;17.42;8.25;;;;;;;2.10;100.00;102246.91;6304235;28;20048;-73
2023/03/02 13:06:22;;;;;;;19.10;7.90;;;;;;;2.15;100.00;102243.50;6326361;28;20079;-73
2023/03/02 13:09:24;;;;;;;24.05;9.13;;;;;;;2.16;100.00;102241.75;6328860;28;20044;-73
2023/03/02 13:12:29;;;;;;;23.13;8.10;;;;;;;2.20;100.00;102234.00;6328686;28;20051;-73
2023/03/02 13:15:30;;;;;;;24.58;9.45;;;;;;;2.16;100.00;102228.78;6323381;28;20040;-73
2023/03/02 13:18:33;;;;;;;24.92;9.02;;;;;;;2.15;100.00;102227.94;6328475;28;20044;-74
2023/03/02 13:21:37;;;;;;;56.63;13.55;;;;;;;2.14;100.00;102225.34;6328973;28;20051;-73
2023/03/02 13:24:46;;;;;;;37.00;9.57;;;;;;;2.12;100.00;102216.66;6328497;28;20052;-73
2023/03/02 13:27:53;;;;;;;56.28;19.73;;;;;;;2.14;100.00;102207.19;6327318;28;20387;-75
2023/03/02 13:31:00;;;;;;;32.38;11.40;;;;;;;2.16;100.00;102205.44;6309458;28;20055;-73
2023/03/02 13:34:01;;;;;;;31.27;12.38;;;;;;;2.23;100.00;102207.22;6328631;28;20048;-73
2023/03/02 13:37:19;;;;;;;33.35;12.93;;;;;;;2.18;100.00;102208.91;6324598;28;20055;-74
2023/03/02 13:40:38;;;;;;;20.70;9.23;;;;;;;2.16;100.00;102202.84;6303285;28;20044;-73
2023/03/02 13:43:41;;;;;;;;;;;;;;;2.06;100.00;102194.16;6303615;28;20068;-74
2023/03/02 13:46:42;;;;;;;45.92;16.67;;;;;;;2.05;100.00;102195.03;6316796;28;19931;-74
2023/03/02 13:49:43;;;;;;;28.88;10.73;;;;;;;2.01;100.00;102191.56;6321049;28;20044;-74
2023/03/02 13:52:45;;;;;;;41.22;15.52;;;;;;;2.11;100.00;102197.66;6327623;28;20432;-74
2023/03/02 13:55:47;;;;;;;26.70;11.13;;;;;;;2.13;100.00;102192.47;6317934;28;20056;-74
2023/03/02 13:58:49;;;;;;;23.35;9.38;;;;;;;2.15;100.00;102183.84;6302992;28;20048;-74
2023/03/02 14:01:51;;;;;;;38.25;13.88;;;;;;;2.10;100.00;102182.97;6311106;28;20059;-73
2023/03/02 14:04:53;;;;;;;23.90;9.65;;;;;;;2.14;100.00;102184.72;6313205;28;20044;-74